Corky — WDC3366 — position and weather

sailwx.info

Track history (hours):
 
Tides and Currents Weather Stations Pressure Air Temp Water Temp Dewpoint Dewpoint Depression Visibility Wind Speed Wind Dir Waves Ship Positions

Corky

Owner: Gulf South Marine Transportation, Inc., New Orleans, LA. More information available from US FCC via Universal Licensing System and Coast Guard Vessel Documentation Center.

Last reported at 2015-Jan-28 07:22 UTC. Time now 2015-Jan-28 09:15 UTC.
Position N 29°55' W 089°56'.

Length 18 m; draft 3.3 m.

Type: Tow > 200 m length. MMSI: 367006780.

Date/timePositionNaut miles runAvg speedWind from/ knotsBaromVisibWave heightAir tempDewpointWater temp
2015-Jan-28 07:22N 29°55' W 089°56'5 6.4
2015-Jan-28 06:33N 29°57' W 090°01'4 4.3
2015-Jan-28 05:33N 29°55' W 090°06'2 1.3
2015-Jan-28 04:23N 29°54' W 090°07'1 0.0
2015-Jan-27 01:09N 29°55' W 090°07'4 5.5
2015-Jan-27 00:21N 29°57' W 090°03'5 1.3
2015-Jan-26 20:23N 29°55' W 089°57'0 0.1
2015-Jan-26 18:12N 29°55' W 089°57'4 6.7
2015-Jan-26 17:33N 29°58' W 090°02'1 1.0
2015-Jan-26 16:30N 29°59' W 090°01'1 1.1
2015-Jan-26 15:33N 29°60' W 090°01'  
2015-Jan-21 01:26N 29°52' W 090°04'3 0.2
2015-Jan-20 11:25N 29°54' W 090°05'0 0.0
2015-Jan-20 10:30N 29°54' W 090°05'0 0.0
2015-Jan-20 08:09N 29°54' W 090°05'0 0.0
2015-Jan-20 07:25N 29°54' W 090°05'0 0.0
2015-Jan-20 06:32N 29°54' W 090°05'0 0.0
2015-Jan-20 05:25N 29°54' W 090°05'0 0.0
2015-Jan-20 04:21N 29°54' W 090°05'0 0.0
2015-Jan-20 03:12N 29°54' W 090°05'0 0.0
2015-Jan-20 02:20N 29°54' W 090°05'0 0.0
2015-Jan-20 01:20N 29°54' W 090°05'0 0.0
2015-Jan-20 00:33N 29°54' W 090°05'0 0.0
2015-Jan-19 23:33N 29°54' W 090°05'0 0.0
2015-Jan-19 22:21N 29°54' W 090°05'0 0.0
2015-Jan-19 21:33N 29°54' W 090°05'0 0.0
2015-Jan-19 20:33N 29°54' W 090°05'0 0.0
2015-Jan-19 19:33N 29°54' W 090°05'0 0.0
2015-Jan-19 18:31N 29°54' W 090°05'0 0.0
2015-Jan-19 17:28N 29°54' W 090°05'0 0.0
2015-Jan-19 16:30N 29°54' W 090°05'0 0.0
2015-Jan-19 15:22N 29°54' W 090°05'0 0.0
2015-Jan-19 14:33N 29°54' W 090°05'0 0.0
2015-Jan-19 13:33N 29°54' W 090°05'0 0.0
2015-Jan-19 12:32N 29°54' W 090°05'0 0.0
2015-Jan-19 11:28N 29°54' W 090°05'0 0.0
2015-Jan-19 10:21N 29°54' W 090°05'0 0.0
2015-Jan-19 09:25N 29°54' W 090°05'0 0.0
2015-Jan-19 08:27N 29°54' W 090°05'0 0.0
2015-Jan-19 07:33N 29°54' W 090°05'4 0.2
2015-Jan-18 13:13N 29°57' W 090°01'  
Track history (hours):
 
Tides and Currents Weather Stations Pressure Air Temp Water Temp Dewpoint Dewpoint Depression Visibility Wind Speed Wind Dir Waves Ship Positions

Corky

Owner: Gulf South Marine Transportation, Inc., New Orleans, LA. More information available from US FCC via Universal Licensing System and Coast Guard Vessel Documentation Center.

Last reported at 2015-Jan-28 07:22 UTC. Time now 2015-Jan-28 09:15 UTC.
Position N 29°55' W 089°56'.

Length 18 m; draft 3.3 m.

Type: Tow > 200 m length. MMSI: 367006780.

Date/timePositionNaut miles runAvg speedWind from/ knotsBaromVisibWave heightAir tempDewpointWater temp
2015-Jan-28 07:22N 29°55' W 089°56'5 6.4
2015-Jan-28 06:33N 29°57' W 090°01'4 4.3
2015-Jan-28 05:33N 29°55' W 090°06'2 1.3
2015-Jan-28 04:23N 29°54' W 090°07'1 0.0
2015-Jan-27 01:09N 29°55' W 090°07'4 5.5
2015-Jan-27 00:21N 29°57' W 090°03'5 1.3
2015-Jan-26 20:23N 29°55' W 089°57'0 0.1
2015-Jan-26 18:12N 29°55' W 089°57'4 6.7
2015-Jan-26 17:33N 29°58' W 090°02'1 1.0
2015-Jan-26 16:30N 29°59' W 090°01'1 1.1
2015-Jan-26 15:33N 29°60' W 090°01'  
2015-Jan-21 01:26N 29°52' W 090°04'3 0.2
2015-Jan-20 11:25N 29°54' W 090°05'0 0.0
2015-Jan-20 10:30N 29°54' W 090°05'0 0.0
2015-Jan-20 08:09N 29°54' W 090°05'0 0.0
2015-Jan-20 07:25N 29°54' W 090°05'0 0.0
2015-Jan-20 06:32N 29°54' W 090°05'0 0.0
2015-Jan-20 05:25N 29°54' W 090°05'0 0.0
2015-Jan-20 04:21N 29°54' W 090°05'0 0.0
2015-Jan-20 03:12N 29°54' W 090°05'0 0.0
2015-Jan-20 02:20N 29°54' W 090°05'0 0.0
2015-Jan-20 01:20N 29°54' W 090°05'0 0.0
2015-Jan-20 00:33N 29°54' W 090°05'0 0.0
2015-Jan-19 23:33N 29°54' W 090°05'0 0.0
2015-Jan-19 22:21N 29°54' W 090°05'0 0.0
2015-Jan-19 21:33N 29°54' W 090°05'0 0.0
2015-Jan-19 20:33N 29°54' W 090°05'0 0.0
2015-Jan-19 19:33N 29°54' W 090°05'0 0.0
2015-Jan-19 18:31N 29°54' W 090°05'0 0.0
2015-Jan-19 17:28N 29°54' W 090°05'0 0.0
2015-Jan-19 16:30N 29°54' W 090°05'0 0.0
2015-Jan-19 15:22N 29°54' W 090°05'0 0.0
2015-Jan-19 14:33N 29°54' W 090°05'0 0.0
2015-Jan-19 13:33N 29°54' W 090°05'0 0.0
2015-Jan-19 12:32N 29°54' W 090°05'0 0.0
2015-Jan-19 11:28N 29°54' W 090°05'0 0.0
2015-Jan-19 10:21N 29°54' W 090°05'0 0.0
2015-Jan-19 09:25N 29°54' W 090°05'0 0.0
2015-Jan-19 08:27N 29°54' W 090°05'0 0.0
2015-Jan-19 07:33N 29°54' W 090°05'4 0.2
2015-Jan-18 13:13N 29°57' W 090°01'  

Dump ship's entire track history